Terminal Aerodrome Forecast
Issued by NWS

Home | Current Version | Previous Version | Text Only | Print | Product List | Glossary On
Versions: 1 2 3 4 5 6 7 8 9 10 11 12 13 14
210
FTUS42 KTAE 262321
TAFABY
TAF
KABY 262321Z 2700/2724 20004KT P6SM BKN090
     FM270900 00000KT 4SM BR SCT005
     FM271100 00000KT 2SM BR BKN003
     FM271400 17008KT P6SM SCT025=

USA.gov is the U.S. government's official web portal to all federal, state and local government web resources and services.